createdAt,value
2023-04-03T00:00:43.698Z,80.53
2023-04-03T00:03:10.014Z,80.35
2023-04-03T00:05:36.316Z,79.91
2023-04-03T00:08:02.644Z,79.82
2023-04-03T00:10:28.945Z,79.96
2023-04-03T00:12:55.241Z,79.81
2023-04-03T00:15:21.573Z,80.56
2023-04-03T00:17:47.891Z,80.87
2023-04-03T00:20:14.338Z,81.98
2023-04-03T00:22:40.676Z,81.65
2023-04-03T00:25:06.984Z,81.89
2023-04-03T00:27:33.273Z,80.95
2023-04-03T00:29:59.619Z,80.09
2023-04-03T00:32:25.930Z,80.18
2023-04-03T00:34:52.240Z,79.39
2023-04-03T00:37:18.564Z,79.70
2023-04-03T00:39:44.863Z,80.00
2023-04-03T00:42:11.147Z,79.22
2023-04-03T00:44:37.444Z,79.30
2023-04-03T00:47:03.747Z,79.05
2023-04-03T00:49:30.044Z,79.08
2023-04-03T00:51:56.337Z,79.14
2023-04-03T00:54:22.622Z,78.98
2023-04-03T00:56:48.937Z,80.23
2023-04-03T00:59:15.268Z,81.03
2023-04-03T01:01:41.590Z,80.84
2023-04-03T01:04:07.939Z,80.95
2023-04-03T01:06:34.253Z,81.97
2023-04-03T01:09:00.533Z,82.16
2023-04-03T01:11:26.815Z,83.45
2023-04-03T01:13:53.142Z,83.77
2023-04-03T01:16:19.485Z,82.46
2023-04-03T01:18:45.847Z,81.63
2023-04-03T01:21:12.148Z,83.53
2023-04-03T01:23:38.438Z,81.57
2023-04-03T01:26:04.720Z,81.26
2023-04-03T01:28:31.030Z,80.84
2023-04-03T01:30:57.320Z,80.80
2023-04-03T01:33:23.613Z,79.85
2023-04-03T01:35:50.032Z,79.86
2023-04-03T01:38:16.338Z,79.42
2023-04-03T01:40:42.641Z,79.34
2023-04-03T01:43:08.964Z,79.36
2023-04-03T01:45:35.298Z,80.23
2023-04-03T01:48:01.650Z,80.77
2023-04-03T01:50:27.987Z,82.00
2023-04-03T01:52:54.270Z,82.60
2023-04-03T01:55:20.574Z,82.88
2023-04-03T01:57:46.896Z,83.11
2023-04-03T02:00:13.192Z,83.82
2023-04-03T02:02:39.500Z,85.71
2023-04-03T02:05:05.801Z,87.14
2023-04-03T02:07:32.093Z,88.94
2023-04-03T02:09:58.381Z,100.00
2023-04-03T02:12:24.688Z,100.00
2023-04-03T02:14:50.980Z,100.00
2023-04-03T02:17:17.322Z,100.00
2023-04-03T02:19:43.650Z,100.00
2023-04-03T02:22:09.946Z,100.00
2023-04-03T02:24:36.247Z,100.00
2023-04-03T02:27:02.554Z,100.00
2023-04-03T02:29:28.841Z,100.00
2023-04-03T02:31:55.149Z,100.00
2023-04-03T02:34:21.449Z,100.00
2023-04-03T02:36:47.735Z,100.00
2023-04-03T02:39:14.040Z,100.00
2023-04-03T02:41:43.471Z,100.00
2023-04-03T02:44:09.772Z,100.00
2023-04-03T02:46:36.104Z,100.00
2023-04-03T02:49:02.436Z,100.00
2023-04-03T02:51:28.720Z,100.00
2023-04-03T02:53:55.014Z,100.00
2023-04-03T02:56:21.342Z,100.00
2023-04-03T02:58:47.633Z,100.00
2023-04-03T03:01:13.956Z,100.00
2023-04-03T03:03:40.335Z,100.00
2023-04-03T03:06:06.632Z,100.00
2023-04-03T03:08:33.078Z,100.00
2023-04-03T03:10:59.397Z,100.00
2023-04-03T03:13:25.700Z,100.00
2023-04-03T03:15:52.040Z,100.00
2023-04-03T03:18:18.364Z,100.00
2023-04-03T03:20:44.656Z,100.00
2023-04-03T03:23:11.410Z,100.00
2023-04-03T03:25:38.353Z,100.00
2023-04-03T03:28:04.987Z,100.00
2023-04-03T03:30:31.286Z,100.00
2023-04-03T03:32:57.629Z,100.00
2023-04-03T03:35:23.942Z,100.00
2023-04-03T03:37:50.238Z,89.85
2023-04-03T03:40:16.542Z,87.76
2023-04-03T03:42:44.502Z,88.14
2023-04-03T03:45:10.794Z,87.89
2023-04-03T03:47:37.181Z,86.93
2023-04-03T03:50:03.501Z,87.61
2023-04-03T03:52:29.804Z,87.73
2023-04-03T03:54:56.253Z,87.81
2023-04-03T03:57:22.592Z,88.34
2023-04-03T03:59:48.889Z,86.17
2023-04-03T04:02:15.257Z,85.86
2023-04-03T04:04:41.565Z,85.87
2023-04-03T04:07:07.859Z,85.22
2023-04-03T04:09:34.174Z,85.68
2023-04-03T04:12:00.474Z,85.59
2023-04-03T04:14:26.772Z,84.54
2023-04-03T04:16:53.136Z,85.49
2023-04-03T04:19:19.458Z,85.03
2023-04-03T04:21:45.792Z,85.39
2023-04-03T04:24:12.100Z,85.28
2023-04-03T04:26:38.391Z,85.11
2023-04-03T04:29:04.689Z,85.40
2023-04-03T04:31:31.192Z,85.31
2023-04-03T04:33:57.571Z,84.43
2023-04-03T04:36:23.956Z,84.87
2023-04-03T04:38:50.315Z,83.70
2023-04-03T04:41:16.595Z,84.68
2023-04-03T04:43:42.891Z,84.95
2023-04-03T04:46:09.289Z,84.41
2023-04-03T04:48:35.729Z,84.46
2023-04-03T04:51:02.033Z,85.17
2023-04-03T04:53:28.359Z,84.29
2023-04-03T04:55:54.651Z,84.74
2023-04-03T04:58:20.935Z,83.70
2023-04-03T05:00:47.256Z,83.55
2023-04-03T05:03:13.566Z,83.90
2023-04-03T05:05:40.019Z,84.09
2023-04-03T05:08:06.561Z,84.84
2023-04-03T05:10:32.863Z,85.26
2023-04-03T05:12:59.161Z,85.05
2023-04-03T05:15:25.489Z,85.55
2023-04-03T05:17:51.863Z,85.05
2023-04-03T05:20:18.175Z,85.59
2023-04-03T05:22:44.509Z,85.73
2023-04-03T05:25:10.797Z,84.76
2023-04-03T05:27:37.103Z,84.70
2023-04-03T05:30:03.472Z,83.80
2023-04-03T05:32:29.816Z,84.01
2023-04-03T05:34:56.118Z,83.89
2023-04-03T05:37:22.433Z,84.15
2023-04-03T05:39:49.018Z,83.86
2023-04-03T05:42:15.313Z,82.75
2023-04-03T05:44:41.629Z,83.27
2023-04-03T05:47:07.933Z,84.29
2023-04-03T05:49:34.242Z,83.80
2023-04-03T05:52:00.572Z,84.33
2023-04-03T05:54:26.875Z,82.71
2023-04-03T05:56:53.447Z,83.11
2023-04-03T05:59:19.819Z,83.56
2023-04-03T06:01:46.141Z,82.35
2023-04-03T06:04:12.580Z,84.03
2023-04-03T06:06:39.001Z,83.91
2023-04-03T06:09:05.296Z,83.39
2023-04-03T06:11:31.603Z,82.85
2023-04-03T06:13:57.926Z,83.00
2023-04-03T06:16:24.232Z,83.74
2023-04-03T06:18:50.544Z,83.63
2023-04-03T06:21:16.854Z,83.14
2023-04-03T06:23:43.150Z,83.37
2023-04-03T06:26:09.452Z,82.74
2023-04-03T06:28:35.778Z,84.27
2023-04-03T06:31:02.102Z,83.17
2023-04-03T06:33:28.411Z,84.19
2023-04-03T06:35:54.780Z,84.06
2023-04-03T06:38:21.088Z,85.11
2023-04-03T06:40:47.502Z,84.58
2023-04-03T06:43:13.801Z,84.39
2023-04-03T06:45:40.297Z,84.31
2023-04-03T06:48:06.772Z,84.33
2023-04-03T06:50:33.148Z,84.55
2023-04-03T06:52:59.466Z,84.28
2023-04-03T06:55:25.771Z,84.40
2023-04-03T06:57:52.097Z,83.89
2023-04-03T07:00:18.404Z,83.57
2023-04-03T07:02:44.785Z,83.66
2023-04-03T07:05:11.207Z,83.16
2023-04-03T07:07:37.561Z,83.52
2023-04-03T07:10:03.873Z,83.39
2023-04-03T07:12:30.196Z,84.12
2023-04-03T07:14:56.609Z,83.65
2023-04-03T07:17:22.924Z,83.51
2023-04-03T07:19:49.244Z,83.33
2023-04-03T07:22:15.534Z,82.75
2023-04-03T07:24:41.834Z,82.94
2023-04-03T07:27:08.159Z,82.49
2023-04-03T07:29:34.456Z,82.15
2023-04-03T07:32:00.876Z,80.86
2023-04-03T07:34:27.302Z,81.27
2023-04-03T07:36:53.607Z,80.68
2023-04-03T07:39:19.916Z,80.05
2023-04-03T07:41:46.220Z,80.31
2023-04-03T07:44:12.524Z,79.27
2023-04-03T07:46:38.880Z,79.32
2023-04-03T07:49:05.202Z,79.27
2023-04-03T07:51:31.498Z,80.21
2023-04-03T07:53:57.801Z,79.83
2023-04-03T07:56:24.125Z,80.79
2023-04-03T07:58:50.570Z,81.79
2023-04-03T08:01:16.859Z,81.11
2023-04-03T08:03:43.310Z,80.85
2023-04-03T08:06:15.617Z,81.85
2023-04-03T08:08:42.585Z,80.58
2023-04-03T08:11:08.945Z,79.89
2023-04-03T08:13:35.239Z,79.32
2023-04-03T08:16:01.542Z,79.98
2023-04-03T08:18:27.958Z,80.40
2023-04-03T08:20:54.281Z,79.30
2023-04-03T08:23:20.576Z,80.13
2023-04-03T08:25:46.901Z,80.03
2023-04-03T08:28:13.214Z,79.98
2023-04-03T08:30:39.573Z,79.81
2023-04-03T08:33:05.953Z,79.11
2023-04-03T08:35:32.315Z,79.39
2023-04-03T08:37:58.684Z,79.51
2023-04-03T08:40:25.062Z,79.59
2023-04-03T08:42:51.427Z,78.74
2023-04-03T08:45:17.939Z,79.24
2023-04-03T08:47:44.473Z,79.04
2023-04-03T08:50:11.070Z,78.51
2023-04-03T08:52:37.378Z,78.16
2023-04-03T08:55:03.706Z,78.62
2023-04-03T08:57:30.080Z,78.53
2023-04-03T08:59:56.432Z,78.93
2023-04-03T09:02:22.793Z,78.87
2023-04-03T09:04:49.126Z,79.29
2023-04-03T09:07:15.424Z,80.31
2023-04-03T09:09:41.753Z,79.93
2023-04-03T09:12:08.053Z,79.83
2023-04-03T09:14:34.358Z,79.57
2023-04-03T09:17:00.724Z,79.00
2023-04-03T09:19:27.035Z,78.76
2023-04-03T09:21:53.436Z,78.50
2023-04-03T09:24:19.761Z,77.59
2023-04-03T09:26:46.053Z,77.59
2023-04-03T09:29:12.360Z,78.03
2023-04-03T09:31:40.050Z,76.36
2023-04-03T09:34:07.230Z,76.28
2023-04-03T09:36:33.591Z,75.57
2023-04-03T09:38:59.913Z,75.89
2023-04-03T09:41:26.218Z,75.17
2023-04-03T09:43:52.532Z,74.76
2023-04-03T09:46:20.651Z,75.08
2023-04-03T09:48:48.168Z,74.46
2023-04-03T09:51:16.303Z,74.50
2023-04-03T09:53:42.621Z,74.56
2023-04-03T09:56:08.911Z,74.07
2023-04-03T09:58:46.774Z,74.25
2023-04-03T10:01:15.813Z,73.78
2023-04-03T10:03:42.160Z,73.59
2023-04-03T10:06:11.473Z,73.53
2023-04-03T10:08:37.800Z,73.96
2023-04-03T10:11:04.184Z,74.16
2023-04-03T10:13:32.301Z,73.12
2023-04-03T10:15:58.732Z,73.53
2023-04-03T10:18:25.251Z,72.94
2023-04-03T10:20:51.612Z,72.57
2023-04-03T10:23:17.975Z,72.13
2023-04-03T10:25:44.261Z,72.40
2023-04-03T10:28:10.549Z,71.11
2023-04-03T10:30:37.051Z,71.14
2023-04-03T10:33:03.765Z,71.19
2023-04-03T10:35:30.166Z,71.09
2023-04-03T10:37:56.529Z,70.22
2023-04-03T10:40:22.828Z,69.72
2023-04-03T10:42:49.123Z,69.11
2023-04-03T10:45:15.439Z,69.91
2023-04-03T10:47:41.751Z,68.32
2023-04-03T10:50:08.076Z,68.25
2023-04-03T10:52:34.406Z,67.25
2023-04-03T10:55:00.725Z,67.27
2023-04-03T10:57:27.119Z,65.96
2023-04-03T10:59:53.436Z,66.03
2023-04-03T11:02:19.756Z,65.52
2023-04-03T11:04:46.100Z,66.24
2023-04-03T11:07:12.411Z,64.69
2023-04-03T11:09:38.747Z,65.73
2023-04-03T11:12:05.040Z,65.06
2023-04-03T11:14:31.365Z,64.27
2023-04-03T11:16:57.680Z,63.78
2023-04-03T11:19:24.000Z,64.04
2023-04-03T11:21:50.313Z,63.20
2023-04-03T11:24:16.592Z,64.18
2023-04-03T11:26:42.892Z,64.48
2023-04-03T11:29:09.280Z,64.58
2023-04-03T11:31:35.962Z,62.80
2023-04-03T11:34:02.280Z,61.19
2023-04-03T11:36:33.095Z,60.21
2023-04-03T11:39:02.660Z,61.12
2023-04-03T11:41:29.009Z,60.64
2023-04-03T11:43:55.364Z,60.23
2023-04-03T11:46:21.695Z,61.51
2023-04-03T11:48:48.021Z,60.05
2023-04-03T11:51:14.309Z,60.06
2023-04-03T11:53:40.597Z,60.06
2023-04-03T11:56:06.917Z,57.96
2023-04-03T11:58:33.212Z,57.64
2023-04-03T12:00:59.500Z,56.90
2023-04-03T12:03:25.849Z,58.25
2023-04-03T12:05:52.213Z,57.42
2023-04-03T12:08:18.508Z,56.37
2023-04-03T12:10:44.828Z,57.78
2023-04-03T12:13:11.134Z,56.83
2023-04-03T12:15:37.616Z,57.28
2023-04-03T12:18:04.268Z,58.53
2023-04-03T12:20:30.590Z,58.47
2023-04-03T12:22:56.882Z,57.52
2023-04-03T12:25:23.199Z,59.19
2023-04-03T12:27:49.495Z,58.19
2023-04-03T12:30:15.786Z,58.64
2023-04-03T12:32:42.278Z,58.93
2023-04-03T12:35:08.611Z,58.71
2023-04-03T12:37:34.909Z,59.01
2023-04-03T12:40:01.247Z,58.63
2023-04-03T12:42:27.534Z,57.30
2023-04-03T12:44:53.825Z,58.87
2023-04-03T12:47:20.164Z,57.06
2023-04-03T12:49:46.466Z,57.57
2023-04-03T12:52:12.762Z,56.96
2023-04-03T12:54:39.094Z,56.96
2023-04-03T12:57:05.421Z,58.82
2023-04-03T12:59:31.743Z,56.72
2023-04-03T13:01:58.177Z,57.56
2023-04-03T13:04:24.526Z,57.83
2023-04-03T13:06:50.834Z,56.12
2023-04-03T13:09:17.158Z,58.72
2023-04-03T13:11:43.455Z,58.88
2023-04-03T13:14:09.752Z,58.04
2023-04-03T13:16:36.145Z,55.40
2023-04-03T13:19:02.716Z,57.96
2023-04-03T13:21:29.474Z,55.84
2023-04-03T13:24:07.171Z,58.43
2023-04-03T13:26:40.802Z,57.62
2023-04-03T13:29:08.328Z,58.82
2023-04-03T13:31:35.782Z,56.87
2023-04-03T13:34:02.091Z,57.74
2023-04-03T13:36:28.446Z,56.10
2023-04-03T13:38:54.769Z,57.32
2023-04-03T13:41:21.069Z,58.00
2023-04-03T13:43:47.378Z,57.18
2023-04-03T13:46:13.704Z,56.41
2023-04-03T13:48:40.024Z,57.04
2023-04-03T13:51:06.334Z,56.32
2023-04-03T13:53:32.635Z,55.14
2023-04-03T13:55:58.936Z,57.48
2023-04-03T13:58:25.260Z,57.16
2023-04-03T14:00:51.632Z,57.26
2023-04-03T14:03:17.953Z,54.85
2023-04-03T14:05:44.261Z,56.53
2023-04-03T14:08:10.564Z,56.16
2023-04-03T14:10:36.847Z,56.65
2023-04-03T14:13:03.168Z,56.18
2023-04-03T14:15:29.478Z,57.30
2023-04-03T14:17:55.775Z,54.19
2023-04-03T14:20:22.105Z,55.12
2023-04-03T14:22:48.398Z,54.91
2023-04-03T14:25:14.710Z,56.52
2023-04-03T14:27:41.033Z,56.69
2023-04-03T14:30:07.336Z,55.61
2023-04-03T14:32:33.634Z,56.25
2023-04-03T14:34:59.968Z,55.58
2023-04-03T14:37:26.264Z,56.08
2023-04-03T14:39:52.577Z,55.29
2023-04-03T14:42:18.982Z,55.14
2023-04-03T14:44:45.286Z,56.18
2023-04-03T14:47:14.303Z,55.90
2023-04-03T14:49:46.446Z,54.79
2023-04-03T14:52:12.743Z,56.95
2023-04-03T14:54:39.037Z,55.64
2023-04-03T14:57:05.392Z,55.42
2023-04-03T14:59:31.724Z,55.73
2023-04-03T15:01:58.101Z,55.28
2023-04-03T15:04:24.627Z,56.36
2023-04-03T15:06:51.022Z,55.87
2023-04-03T15:09:17.312Z,57.55
2023-04-03T15:11:43.735Z,55.92
2023-04-03T15:14:10.028Z,55.31
2023-04-03T15:16:36.357Z,55.99
2023-04-03T15:19:02.723Z,56.97
2023-04-03T15:21:29.021Z,56.93
2023-04-03T15:23:55.317Z,56.63
2023-04-03T15:26:21.646Z,55.77
2023-04-03T15:28:47.951Z,56.56
2023-04-03T15:31:14.265Z,56.16
2023-04-03T15:33:40.598Z,56.68
2023-04-03T15:36:07.927Z,56.03
2023-04-03T15:38:43.817Z,56.79
2023-04-03T15:41:10.107Z,56.01
2023-04-03T15:43:36.402Z,55.54
2023-04-03T15:46:02.959Z,57.06
2023-04-03T15:48:29.328Z,56.91
2023-04-03T15:50:57.119Z,56.82
2023-04-03T15:53:24.050Z,58.20
2023-04-03T15:55:50.365Z,56.99
2023-04-03T15:58:16.704Z,56.73
2023-04-03T16:00:43.066Z,56.96
2023-04-03T16:03:09.520Z,57.18
2023-04-03T16:05:35.926Z,56.72
2023-04-03T16:08:02.381Z,56.58
2023-04-03T16:10:28.694Z,55.95
2023-04-03T16:12:54.986Z,56.05
2023-04-03T16:15:21.309Z,54.36
2023-04-03T16:17:47.659Z,55.05
2023-04-03T16:20:13.970Z,53.94
2023-04-03T16:22:40.301Z,56.34
2023-04-03T16:25:07.734Z,54.33
2023-04-03T16:27:34.025Z,52.92
2023-04-03T16:30:00.379Z,54.84
2023-04-03T16:32:26.712Z,53.17
2023-04-03T16:34:53.009Z,52.39
2023-04-03T16:37:19.435Z,51.77
2023-04-03T16:39:45.736Z,51.93
2023-04-03T16:42:12.019Z,51.79
2023-04-03T16:44:38.319Z,51.87
2023-04-03T16:47:04.658Z,51.54
2023-04-03T16:49:31.096Z,52.09
2023-04-03T16:51:57.449Z,52.42
2023-04-03T16:54:23.720Z,52.48
2023-04-03T16:56:50.007Z,52.10
2023-04-03T16:59:16.359Z,52.37
2023-04-03T17:01:42.657Z,50.81
2023-04-03T17:04:09.028Z,51.43
2023-04-03T17:06:35.360Z,52.21
2023-04-03T17:09:01.656Z,53.47
2023-04-03T17:11:27.981Z,53.67
2023-04-03T17:13:54.339Z,53.46
2023-04-03T17:16:20.644Z,52.46
2023-04-03T17:18:46.959Z,52.39
2023-04-03T17:21:13.279Z,52.45
2023-04-03T17:23:39.605Z,51.52
2023-04-03T17:26:05.932Z,52.01
2023-04-03T17:28:32.280Z,52.41
2023-04-03T17:30:58.608Z,52.02
2023-04-03T17:33:24.904Z,51.36
2023-04-03T17:35:51.227Z,51.13
2023-04-03T17:38:17.568Z,50.45
2023-04-03T17:40:44.200Z,51.88
2023-04-03T17:43:11.422Z,51.51
2023-04-03T17:45:37.985Z,52.63
2023-04-03T17:48:04.476Z,52.65
2023-04-03T17:50:30.839Z,51.96
2023-04-03T17:52:57.231Z,52.90
2023-04-03T17:55:23.519Z,53.59
2023-04-03T17:57:49.885Z,52.99
2023-04-03T18:00:16.179Z,52.83
2023-04-03T18:02:42.543Z,53.06
2023-04-03T18:05:08.911Z,53.15
2023-04-03T18:07:35.203Z,53.22
2023-04-03T18:10:01.493Z,52.62
2023-04-03T18:12:27.804Z,52.53
2023-04-03T18:14:54.105Z,53.47
2023-04-03T18:17:20.397Z,53.62
2023-04-03T18:19:46.719Z,53.30
2023-04-03T18:22:13.009Z,53.87
2023-04-03T18:24:39.314Z,55.44
2023-04-03T18:27:05.635Z,54.99
2023-04-03T18:29:31.941Z,52.80
2023-04-03T18:31:58.374Z,52.19
2023-04-03T18:34:27.819Z,52.33
2023-04-03T18:36:54.115Z,52.40
2023-04-03T18:39:20.849Z,51.92
2023-04-03T18:41:47.996Z,52.74
2023-04-03T18:44:14.296Z,51.85
2023-04-03T18:46:40.622Z,51.51
2023-04-03T18:49:06.956Z,51.02
2023-04-03T18:51:33.253Z,50.19
2023-04-03T18:53:59.591Z,51.12
2023-04-03T18:56:25.918Z,50.97
2023-04-03T18:58:52.336Z,52.39
2023-04-03T19:01:18.650Z,55.93
2023-04-03T19:03:45.091Z,58.87
2023-04-03T19:06:11.426Z,58.63
2023-04-03T19:08:37.733Z,57.49
2023-04-03T19:11:04.062Z,57.70
2023-04-03T19:13:30.592Z,56.98
2023-04-03T19:15:56.886Z,56.69
2023-04-03T19:18:23.223Z,57.75
2023-04-03T19:20:49.513Z,58.02
2023-04-03T19:23:16.506Z,57.40
2023-04-03T19:25:43.975Z,59.37
2023-04-03T19:28:10.496Z,57.33
2023-04-03T19:30:36.823Z,57.93
2023-04-03T19:33:03.232Z,57.91
2023-04-03T19:35:29.592Z,58.16
2023-04-03T19:37:56.024Z,58.22
2023-04-03T19:40:22.343Z,58.63
2023-04-03T19:42:48.643Z,57.92
2023-04-03T19:45:14.983Z,58.30
2023-04-03T19:47:41.352Z,58.77
2023-04-03T19:50:07.733Z,57.05
2023-04-03T19:52:34.035Z,58.88
2023-04-03T19:55:00.353Z,58.59
2023-04-03T19:57:26.661Z,58.26
2023-04-03T19:59:52.970Z,58.03
2023-04-03T20:02:19.295Z,58.88
2023-04-03T20:04:45.596Z,58.35
2023-04-03T20:07:11.924Z,58.94
2023-04-03T20:09:38.284Z,59.00
2023-04-03T20:12:04.575Z,57.88
2023-04-03T20:14:30.877Z,58.29
2023-04-03T20:16:57.199Z,58.46
2023-04-03T20:19:23.491Z,58.42
2023-04-03T20:21:49.776Z,58.45
2023-04-03T20:24:17.296Z,58.77
2023-04-03T20:26:44.104Z,59.16
2023-04-03T20:29:10.388Z,58.43
2023-04-03T20:31:36.764Z,58.16
2023-04-03T20:34:03.151Z,58.93
2023-04-03T20:36:29.523Z,58.69
2023-04-03T20:38:55.976Z,58.97
2023-04-03T20:41:22.282Z,59.25
2023-04-03T20:43:48.578Z,58.42
2023-04-03T20:46:14.939Z,59.06
2023-04-03T20:48:41.259Z,59.33
2023-04-03T20:51:07.597Z,58.88
2023-04-03T20:53:33.925Z,58.71
2023-04-03T20:56:00.612Z,59.42
2023-04-03T20:58:27.336Z,59.48
2023-04-03T21:00:53.781Z,58.37
2023-04-03T21:03:20.162Z,58.92
2023-04-03T21:05:46.583Z,58.97
2023-04-03T21:08:12.909Z,59.83
2023-04-03T21:10:39.386Z,59.85
2023-04-03T21:13:05.898Z,59.36
2023-04-03T21:15:32.253Z,60.53
2023-04-03T21:17:58.586Z,58.37
2023-04-03T21:20:24.925Z,59.22
2023-04-03T21:22:51.249Z,59.94
2023-04-03T21:25:17.552Z,59.73
2023-04-03T21:27:43.847Z,59.76
2023-04-03T21:30:10.176Z,59.98
2023-04-03T21:32:36.578Z,60.04
2023-04-03T21:35:02.911Z,60.54
2023-04-03T21:37:29.234Z,60.20
2023-04-03T21:39:55.534Z,60.92
2023-04-03T21:42:21.837Z,61.30
2023-04-03T21:44:48.162Z,60.95
2023-04-03T21:47:14.462Z,60.95
2023-04-03T21:49:40.766Z,61.20
2023-04-03T21:52:07.083Z,61.30
2023-04-03T21:54:33.400Z,60.50
2023-04-03T21:56:59.690Z,61.33
2023-04-03T21:59:26.203Z,60.88
2023-04-03T22:01:52.741Z,60.59
2023-04-03T22:04:19.085Z,59.95
2023-04-03T22:06:45.398Z,60.42
2023-04-03T22:09:11.700Z,60.54
2023-04-03T22:11:38.004Z,60.01
2023-04-03T22:14:04.324Z,59.57
2023-04-03T22:16:30.647Z,60.13
2023-04-03T22:18:56.970Z,60.69
2023-04-03T22:21:23.354Z,60.02
2023-04-03T22:23:49.656Z,59.96
2023-04-03T22:26:15.949Z,60.21
2023-04-03T22:28:42.270Z,59.18
2023-04-03T22:31:08.683Z,58.95
2023-04-03T22:33:35.010Z,58.68
2023-04-03T22:36:01.371Z,59.16
2023-04-03T22:38:27.720Z,59.73
2023-04-03T22:40:54.020Z,59.03
2023-04-03T22:43:20.350Z,59.01
2023-04-03T22:45:46.642Z,59.30
2023-04-03T22:48:12.936Z,58.29
2023-04-03T22:50:39.534Z,56.91
2023-04-03T22:53:06.154Z,57.29
2023-04-03T22:55:32.479Z,57.58
2023-04-03T22:57:58.794Z,56.57
2023-04-03T23:00:25.196Z,56.92
2023-04-03T23:02:51.529Z,56.17
2023-04-03T23:05:17.873Z,56.82
2023-04-03T23:07:44.175Z,58.27
2023-04-03T23:10:10.463Z,56.08
2023-04-03T23:12:36.782Z,57.20
2023-04-03T23:15:03.083Z,56.15
2023-04-03T23:17:29.417Z,55.40
2023-04-03T23:19:55.795Z,55.26
2023-04-03T23:22:22.097Z,55.40
2023-04-03T23:24:48.399Z,54.89
2023-04-03T23:27:14.843Z,54.50
2023-04-03T23:29:41.152Z,55.34
2023-04-03T23:32:07.465Z,54.77
2023-04-03T23:34:33.811Z,55.06
2023-04-03T23:37:00.113Z,54.20
2023-04-03T23:39:26.417Z,54.87
2023-04-03T23:41:52.745Z,53.60
2023-04-03T23:44:19.043Z,54.08
2023-04-03T23:46:45.378Z,54.34
2023-04-03T23:49:11.703Z,53.51
2023-04-03T23:51:37.993Z,52.96
2023-04-03T23:54:04.335Z,53.21
2023-04-03T23:56:30.671Z,53.26
2023-04-03T23:58:56.982Z,52.55
